Time;durP1;ratioP1;P1;durP2;ratioP2;P2;SDS_P1;SDS_P2;PMS_P1;PMS_P2;Temp;Humidity;BMP_temperature;BMP_pressure;BME280_temperature;BME280_humidity;BME280_pressure;Samples;Min_cycle;Max_cycle;Signal;HPM_P1;HPM_P2
2021/12/29 00:00:29;;;;;;;11.80;9.17;;;9.10;99.90;;;;;;4993916;28;20191;-83
2021/12/29 00:02:58;;;;;;;11.75;8.95;;;9.10;99.90;;;;;;4994020;28;20660;-81
2021/12/29 00:05:24;;;;;;;13.82;9.75;;;9.10;99.90;;;;;;4995355;28;20170;-83
2021/12/29 00:07:49;;;;;;;10.63;8.97;;;9.10;99.90;;;;;;4995357;28;20303;-82
2021/12/29 00:10:16;;;;;;;17.03;9.23;;;9.10;99.90;;;;;;4993561;28;20549;-82
2021/12/29 00:12:46;;;;;;;11.00;9.13;;;9.00;99.90;;;;;;4995303;28;20178;-82
2021/12/29 00:15:14;;;;;;;11.23;8.20;;;9.00;99.90;;;;;;4995149;28;20180;-81
2021/12/29 00:17:42;;;;;;;14.25;10.02;;;9.00;99.90;;;;;;4995130;28;20168;-82
2021/12/29 00:20:09;;;;;;;14.13;11.00;;;9.00;99.90;;;;;;4994969;28;20233;-82
2021/12/29 00:22:35;;;;;;;13.00;9.20;;;9.00;99.90;;;;;;4995084;28;20209;-82
2021/12/29 00:25:01;;;;;;;12.37;9.27;;;9.00;99.90;;;;;;4995174;28;20526;-81
2021/12/29 00:27:27;;;;;;;11.93;10.07;;;9.00;99.90;;;;;;4994954;28;20180;-82
2021/12/29 00:29:52;;;;;;;14.83;10.50;;;9.10;99.90;;;;;;4994499;28;20215;-82
2021/12/29 00:32:18;;;;;;;15.37;10.20;;;9.10;99.90;;;;;;4993435;28;20199;-82
2021/12/29 00:34:43;;;;;;;11.77;9.00;;;9.10;99.90;;;;;;4993586;28;20188;-81
2021/12/29 00:37:09;;;;;;;12.83;10.90;;;9.10;99.90;;;;;;4994732;28;20179;-82
2021/12/29 00:39:34;;;;;;;15.60;11.73;;;9.10;99.90;;;;;;4994257;28;20214;-82
2021/12/29 00:42:01;;;;;;;11.63;9.90;;;9.10;99.90;;;;;;4994556;28;20345;-81
2021/12/29 00:44:27;;;;;;;10.95;9.35;;;9.10;99.90;;;;;;4994667;28;20176;-82
2021/12/29 00:46:53;;;;;;;9.03;7.83;;;9.10;99.90;;;;;;4994622;28;20185;-84
2021/12/29 00:49:20;;;;;;;10.25;7.55;;;9.10;99.90;;;;;;4992956;28;20479;-82
2021/12/29 00:51:46;;;;;;;9.60;7.55;;;9.10;99.90;;;;;;4994252;28;20242;-82
2021/12/29 00:54:12;;;;;;;8.20;6.85;;;9.10;99.90;;;;;;4994353;28;20177;-83
2021/12/29 00:56:38;;;;;;;9.90;7.27;;;9.10;99.90;;;;;;4993365;28;20278;-84
2021/12/29 00:59:04;;;;;;;7.57;6.18;;;9.00;99.90;;;;;;4994351;28;20176;-81
2021/12/29 01:01:30;;;;;;;7.70;6.63;;;9.10;99.90;;;;;;4992738;28;20242;-83
2021/12/29 01:03:56;;;;;;;7.70;6.70;;;9.10;99.90;;;;;;4994281;28;20202;-83
2021/12/29 01:06:23;;;;;;;12.20;7.50;;;9.10;99.90;;;;;;4994328;28;20169;-83
2021/12/29 01:08:49;;;;;;;8.38;7.20;;;9.10;99.90;;;;;;4993144;28;20581;-83
2021/12/29 01:11:15;;;;;;;9.73;7.72;;;9.00;99.90;;;;;;4993778;28;20339;-82
2021/12/29 01:13:47;;;;;;;7.38;6.45;;;9.10;99.90;;;;;;4994026;28;20173;-81
2021/12/29 01:19:09;;;;;;;9.73;8.82;;;9.10;99.90;;;;;;4994473;28;20189;-81
2021/12/29 01:21:37;;;;;;;10.27;7.60;;;9.20;99.90;;;;;;4993820;28;20581;-81
2021/12/29 01:24:05;;;;;;;9.93;8.45;;;9.20;99.90;;;;;;4993868;28;20171;-81
2021/12/29 01:26:30;;;;;;;7.03;6.25;;;9.20;99.90;;;;;;4994129;28;20167;-82
2021/12/29 01:28:56;;;;;;;7.03;5.87;;;9.20;99.90;;;;;;4994037;28;20593;-80
2021/12/29 01:31:22;;;;;;;9.18;7.05;;;9.10;99.90;;;;;;4993455;28;20310;-82
2021/12/29 01:33:48;;;;;;;11.43;7.90;;;9.20;99.90;;;;;;4993982;28;20262;-82
2021/12/29 01:36:13;;;;;;;8.17;7.37;;;9.20;99.90;;;;;;4992788;28;20183;-81
2021/12/29 01:38:39;;;;;;;7.50;6.80;;;9.10;99.90;;;;;;4992946;28;20262;-81
2021/12/29 01:41:05;;;;;;;8.27;7.00;;;9.10;99.90;;;;;;4993577;28;20207;-81
2021/12/29 01:43:31;;;;;;;10.03;8.20;;;9.10;99.90;;;;;;4993888;28;20597;-82
2021/12/29 01:45:56;;;;;;;8.90;8.00;;;9.10;99.90;;;;;;4992392;28;20958;-80
2021/12/29 01:48:22;;;;;;;10.73;7.50;;;9.10;99.90;;;;;;4993690;28;20597;-81
2021/12/29 01:50:51;;;;;;;8.60;7.70;;;9.10;99.90;;;;;;4993271;28;20220;-82
2021/12/29 01:53:28;;;;;;;7.78;7.05;;;9.10;99.90;;;;;;4993777;28;20206;-81
2021/12/29 01:55:56;;;;;;;8.52;7.72;;;9.10;99.90;;;;;;4992430;28;20215;-81
2021/12/29 01:58:22;;;;;;;11.55;7.20;;;9.10;99.90;;;;;;4992258;28;20183;-80
2021/12/29 02:00:50;;;;;;;7.55;6.78;;;9.10;99.90;;;;;;4993509;28;20204;-81
2021/12/29 02:03:15;;;;;;;9.02;8.13;;;9.00;99.90;;;;;;4993555;28;20570;-82
2021/12/29 02:05:41;;;;;;;9.10;6.23;;;9.00;99.90;;;;;;4994198;28;20189;-82
2021/12/29 02:08:08;;;;;;;10.25;9.15;;;9.00;99.90;;;;;;4997508;28;20598;-82
2021/12/29 02:10:44;;;;;;;9.85;8.43;;;9.00;99.90;;;;;;4997041;28;20218;-83
2021/12/29 02:13:10;;;;;;;10.30;8.90;;;9.00;99.90;;;;;;4996296;28;20179;-80
2021/12/29 02:15:36;;;;;;;12.77;8.77;;;9.00;99.90;;;;;;4997350;28;20191;-82
2021/12/29 02:18:02;;;;;;;9.13;8.23;;;9.00;99.90;;;;;;4997381;28;20593;-83
2021/12/29 02:20:28;;;;;;;10.73;9.25;;;9.00;99.90;;;;;;4996808;28;20709;-81
2021/12/29 02:23:12;;;;;;;8.73;7.83;;;9.00;99.90;;;;;;4996322;28;20187;-82
2021/12/29 02:25:57;;;;;;;10.23;9.05;;;8.90;99.90;;;;;;4997588;28;20273;-83
2021/12/29 02:28:32;;;;;;;8.02;7.22;;;9.00;99.90;;;;;;4998228;28;20176;-83
2021/12/29 02:30:59;;;;;;;11.75;10.35;;;8.90;99.90;;;;;;4998724;28;20207;-83
2021/12/29 02:33:26;;;;;;;10.10;8.13;;;9.00;99.90;;;;;;4998061;28;20187;-82
2021/12/29 02:35:52;;;;;;;11.38;8.85;;;9.00;99.90;;;;;;4997193;28;20176;-82
2021/12/29 02:38:21;;;;;;;11.47;9.10;;;8.90;99.90;;;;;;4997140;28;20218;-83
2021/12/29 02:40:50;;;;;;;10.20;9.10;;;9.00;99.90;;;;;;4995288;28;20493;-81
2021/12/29 02:43:20;;;;;;;10.63;8.05;;;9.00;99.90;;;;;;4996931;28;20518;-81
2021/12/29 02:45:49;;;;;;;10.65;7.80;;;9.00;99.90;;;;;;4996980;28;20175;-82
2021/12/29 02:48:16;;;;;;;10.88;8.95;;;9.00;99.90;;;;;;4996828;28;20177;-83
2021/12/29 02:50:42;;;;;;;13.55;10.30;;;8.90;99.90;;;;;;4995173;28;20265;-83
2021/12/29 02:53:09;;;;;;;15.27;9.43;;;8.90;99.90;;;;;;4996856;28;20172;-82
2021/12/29 02:55:35;;;;;;;11.55;10.35;;;8.90;99.90;;;;;;4996704;28;20191;-83
2021/12/29 02:58:01;;;;;;;12.33;9.83;;;8.90;99.90;;;;;;4995347;28;20191;-82
2021/12/29 03:00:26;;;;;;;11.30;9.07;;;8.80;99.90;;;;;;4994957;28;20184;-82
2021/12/29 03:02:52;;;;;;;10.33;8.53;;;8.90;99.90;;;;;;4996279;28;20205;-82
2021/12/29 03:05:19;;;;;;;8.47;7.70;;;8.90;99.90;;;;;;4996551;28;20194;-81
2021/12/29 03:07:45;;;;;;;11.00;9.88;;;8.90;99.90;;;;;;4996555;28;20190;-84
2021/12/29 03:10:10;;;;;;;12.20;8.73;;;8.80;99.90;;;;;;4995995;28;20212;-84
2021/12/29 03:12:36;;;;;;;16.23;10.27;;;8.90;99.90;;;;;;4996342;28;20571;-82
2021/12/29 03:15:02;;;;;;;12.30;10.00;;;8.80;99.90;;;;;;4996391;28;20178;-83
2021/12/29 03:17:30;;;;;;;10.70;9.50;;;8.80;99.90;;;;;;4993855;28;20203;-84
2021/12/29 03:19:56;;;;;;;14.57;10.25;;;9.90;99.90;;;;;;4996152;28;20273;-83
2021/12/29 03:22:21;;;;;;;12.33;8.60;;;8.90;99.90;;;;;;4995055;28;20230;-82
2021/12/29 03:24:47;;;;;;;13.73;10.73;;;8.90;99.90;;;;;;4996152;28;20425;-84
2021/12/29 03:27:13;;;;;;;11.37;9.90;;;8.80;99.90;;;;;;4996207;28;20175;-84
2021/12/29 03:29:39;;;;;;;14.03;11.33;;;8.80;99.90;;;;;;4996004;28;20822;-82
2021/12/29 03:32:08;;;;;;;13.13;7.20;;;8.80;99.90;;;;;;4996237;28;20257;-84
2021/12/29 03:34:34;;;;;;;13.98;10.75;;;8.70;99.90;;;;;;4996225;28;20592;-82
2021/12/29 03:36:59;;;;;;;15.40;11.47;;;8.70;99.90;;;;;;4995887;28;20214;-81
2021/12/29 03:39:26;;;;;;;10.63;9.50;;;8.70;99.90;;;;;;4994739;28;20550;-84
2021/12/29 03:41:52;;;;;;;13.60;11.88;;;8.70;99.90;;;;;;4995802;28;20294;-83
2021/12/29 03:44:18;;;;;;;14.23;10.10;;;8.70;99.90;;;;;;4995947;28;20180;-82
2021/12/29 03:46:43;;;;;;;11.73;10.53;;;8.70;99.90;;;;;;4994587;28;20725;-82
2021/12/29 03:49:10;;;;;;;15.20;10.03;;;8.70;99.90;;;;;;4995563;28;20180;-81
2021/12/29 03:51:36;;;;;;;19.20;9.00;;;8.60;99.90;;;;;;4995657;28;20199;-84
2021/12/29 03:54:04;;;;;;;13.87;9.37;;;8.40;99.90;;;;;;4995821;28;20702;-81
2021/12/29 03:56:30;;;;;;;13.45;9.90;;;8.60;99.90;;;;;;4995444;28;20170;-81
2021/12/29 03:58:56;;;;;;;11.68;9.82;;;8.70;99.90;;;;;;4995495;28;20172;-81
2021/12/29 04:01:25;;;;;;;16.50;11.10;;;8.70;99.90;;;;;;4994977;28;20211;-82
2021/12/29 04:03:51;;;;;;;15.70;10.25;;;8.70;99.90;;;;;;4994275;28;20183;-80
2021/12/29 04:06:18;;;;;;;15.25;10.77;;;8.60;99.90;;;;;;4995391;28;20240;-83
2021/12/29 04:08:44;;;;;;;17.83;11.50;;;8.70;99.90;;;;;;4995630;28;20687;-82
2021/12/29 04:11:10;;;;;;;16.48;11.77;;;8.70;99.90;;;;;;4994931;28;20266;-82
2021/12/29 04:13:36;;;;;;;13.03;11.10;;;8.70;99.90;;;;;;4995494;28;20171;-82
2021/12/29 04:16:02;;;;;;;14.67;12.10;;;8.70;99.90;;;;;;4995387;28;20172;-82
2021/12/29 04:18:30;;;;;;;12.95;9.57;;;8.70;99.90;;;;;;4995324;28;20181;-80
2021/12/29 04:21:00;;;;;;;12.65;9.90;;;8.70;99.90;;;;;;4994802;28;20214;-81
2021/12/29 04:23:35;;;;;;;11.13;8.23;;;8.70;99.90;;;;;;4994990;28;20194;-81
2021/12/29 04:26:03;;;;;;;16.02;10.02;;;8.70;99.90;;;;;;4995204;28;20183;-79
2021/12/29 04:28:30;;;;;;;11.75;9.60;;;8.80;99.90;;;;;;4994813;28;20209;-80
2021/12/29 04:31:05;;;;;;;14.98;9.27;;;8.80;99.90;;;;;;4994625;28;20235;-82
2021/12/29 04:33:31;;;;;;;11.50;9.60;;;8.70;99.90;;;;;;4995048;28;20261;-80
2021/12/29 04:35:57;;;;;;;12.30;8.80;;;8.60;99.90;;;;;;4995202;28;20248;-81
2021/12/29 04:38:24;;;;;;;11.13;8.70;;;8.80;99.90;;;;;;4994851;28;20850;-81
2021/12/29 04:40:51;;;;;;;10.52;8.43;;;8.80;99.90;;;;;;4994271;28;20191;-80
2021/12/29 04:43:18;;;;;;;16.17;10.90;;;8.80;99.90;;;;;;4993445;28;20232;-81
2021/12/29 04:45:45;;;;;;;11.80;9.07;;;8.80;99.90;;;;;;4994703;28;20577;-82
2021/12/29 04:48:13;;;;;;;13.60;9.80;;;8.80;99.90;;;;;;4994726;28;20186;-80
2021/12/29 04:50:51;;;;;;;15.75;8.60;;;8.80;99.90;;;;;;4994160;28;20297;-81
2021/12/29 04:53:18;;;;;;;8.45;7.55;;;8.80;99.90;;;;;;4994597;28;20164;-82
2021/12/29 04:55:45;;;;;;;10.60;8.40;;;8.80;99.90;;;;;;4994405;28;20181;-83
2021/12/29 04:58:12;;;;;;;12.10;9.25;;;8.90;99.90;;;;;;4994392;28;20205;-83
2021/12/29 05:00:38;;;;;;;12.63;8.77;;;8.90;99.90;;;;;;4994069;28;20205;-83
2021/12/29 05:03:05;;;;;;;11.60;10.18;;;8.80;99.90;;;;;;4994259;28;20253;-82
2021/12/29 05:10:41;;;;;;;13.43;9.65;;;8.80;99.90;;;;;;4994102;28;20222;-83
2021/12/29 05:13:07;;;;;;;21.02;10.35;;;8.80;99.90;;;;;;4994242;28;20181;-83
2021/12/29 05:15:33;;;;;;;12.60;10.27;;;8.80;99.90;;;;;;4994105;28;20539;-82
2021/12/29 05:17:59;;;;;;;12.10;10.10;;;8.70;99.90;;;;;;4992906;28;20912;-81
2021/12/29 05:20:26;;;;;;;16.53;11.13;;;8.70;99.90;;;;;;4992647;28;20192;-80
2021/12/29 05:22:52;;;;;;;12.93;10.10;;;8.70;99.90;;;;;;4992983;28;20622;-83
2021/12/29 05:25:18;;;;;;;17.50;10.77;;;8.70;99.90;;;;;;4994112;28;20186;-82
2021/12/29 05:27:43;;;;;;;12.13;10.90;;;8.70;99.90;;;;;;4993989;28;20425;-81
2021/12/29 05:30:09;;;;;;;16.33;11.40;;;8.70;99.90;;;;;;4993774;28;20730;-80
2021/12/29 05:32:35;;;;;;;15.52;12.20;;;8.70;99.90;;;;;;4993907;28;20264;-81
2021/12/29 05:35:00;;;;;;;16.53;11.73;;;8.70;99.90;;;;;;4994054;28;20175;-83
2021/12/29 05:37:26;;;;;;;15.23;12.23;;;8.70;99.90;;;;;;4992781;28;20541;-83
2021/12/29 05:39:51;;;;;;;13.83;11.80;;;8.70;99.90;;;;;;4991667;28;20206;-81
2021/12/29 05:42:17;;;;;;;14.23;11.47;;;8.60;99.90;;;;;;4992793;28;20209;-80
2021/12/29 05:44:43;;;;;;;14.43;10.87;;;8.60;99.90;;;;;;4993856;28;20538;-79
2021/12/29 05:47:08;;;;;;;17.70;10.57;;;8.60;99.90;;;;;;4993865;28;20198;-79
2021/12/29 05:49:34;;;;;;;15.43;11.17;;;8.70;99.90;;;;;;4992337;28;20621;-81
2021/12/29 05:52:00;;;;;;;15.37;10.77;;;8.60;99.90;;;;;;4993614;28;20191;-79
2021/12/29 05:54:27;;;;;;;17.10;11.23;;;8.60;99.90;;;;;;4993763;28;20206;-80
2021/12/29 05:56:53;;;;;;;14.70;11.15;;;8.60;99.90;;;;;;4993711;28;20417;-82
2021/12/29 05:59:18;;;;;;;16.90;11.87;;;8.60;99.90;;;;;;4993410;28;20262;-81
2021/12/29 06:01:44;;;;;;;16.00;10.73;;;9.10;99.90;;;;;;4992300;28;20514;-80
2021/12/29 06:04:11;;;;;;;14.10;9.40;;;8.80;99.90;;;;;;4993555;28;20210;-81
2021/12/29 06:06:36;;;;;;;18.95;11.73;;;8.70;99.90;;;;;;4993772;28;20270;-83
2021/12/29 06:09:03;;;;;;;14.50;9.83;;;8.70;99.90;;;;;;4994036;28;20612;-83
2021/12/29 06:11:28;;;;;;;13.38;11.35;;;8.70;99.90;;;;;;4993609;28;20576;-81
2021/12/29 06:13:54;;;;;;;12.70;10.53;;;8.60;99.90;;;;;;4996211;28;20184;-82
2021/12/29 06:16:20;;;;;;;13.50;10.80;;;8.70;99.90;;;;;;4997263;28;20184;-82
2021/12/29 06:18:45;;;;;;;15.93;11.73;;;8.70;99.90;;;;;;4994424;28;20541;-80
2021/12/29 06:21:16;;;;;;;15.43;10.40;;;8.70;99.90;;;;;;4992040;28;20687;-80
2021/12/29 06:23:47;;;;;;;17.08;10.45;;;8.70;99.90;;;;;;4992463;28;20183;-83
2021/12/29 06:26:14;;;;;;;12.70;9.10;;;8.70;99.90;;;;;;4992296;28;20167;-81
2021/12/29 06:28:40;;;;;;;14.75;9.52;;;8.70;99.90;;;;;;4993469;28;20176;-82
2021/12/29 06:31:06;;;;;;;13.45;8.88;;;8.70;99.90;;;;;;4992831;28;20262;-81
2021/12/29 06:33:32;;;;;;;12.30;8.93;;;8.70;99.90;;;;;;4993542;28;20180;-81
2021/12/29 06:35:58;;;;;;;15.47;10.27;;;8.80;99.90;;;;;;4993418;28;20406;-82
2021/12/29 06:38:24;;;;;;;14.68;10.73;;;8.70;99.90;;;;;;4993261;28;20428;-82
2021/12/29 06:40:50;;;;;;;23.00;10.20;;;8.70;99.90;;;;;;4993019;28;20200;-81
2021/12/29 06:43:15;;;;;;;10.17;8.07;;;8.70;99.90;;;;;;4993228;28;20183;-84
2021/12/29 06:45:41;;;;;;;11.67;9.27;;;8.60;99.90;;;;;;4992030;28;20264;-81
2021/12/29 06:48:07;;;;;;;13.30;8.80;;;8.70;99.90;;;;;;4993372;28;20185;-82
2021/12/29 06:50:33;;;;;;;14.17;9.27;;;8.70;99.90;;;;;;4992848;28;20474;-85
2021/12/29 06:52:58;;;;;;;14.33;8.30;;;8.70;99.90;;;;;;4996554;28;20267;-85
2021/12/29 06:55:24;;;;;;;16.33;8.93;;;8.70;99.90;;;;;;4995553;28;20214;-83
2021/12/29 06:57:50;;;;;;;12.50;8.20;;;8.60;99.90;;;;;;4995520;28;20176;-82
2021/12/29 07:00:16;;;;;;;13.47;8.53;;;8.60;99.90;;;;;;4996241;28;20477;-83
2021/12/29 07:02:41;;;;;;;12.60;8.93;;;8.70;99.90;;;;;;4996733;28;20684;-83
2021/12/29 07:05:07;;;;;;;13.40;8.77;;;8.70;99.90;;;;;;4996678;28;20916;-82
2021/12/29 07:07:33;;;;;;;11.77;8.10;;;8.70;99.90;;;;;;4996786;28;20588;-83
2021/12/29 07:09:59;;;;;;;10.67;8.10;;;8.50;99.90;;;;;;4996167;28;20457;-85
2021/12/29 07:12:24;;;;;;;8.23;6.97;;;8.80;99.90;;;;;;4996343;28;20211;-83
2021/12/29 07:14:50;;;;;;;16.33;6.90;;;8.60;99.90;;;;;;4996312;28;20180;-85
2021/12/29 07:17:16;;;;;;;10.97;6.93;;;8.60;99.90;;;;;;4996408;28;20415;-84
2021/12/29 07:19:41;;;;;;;14.17;9.30;;;8.50;99.90;;;;;;4996172;28;20526;-83
2021/12/29 07:22:07;;;;;;;10.05;7.55;;;8.60;99.90;;;;;;4996614;28;20288;-83
2021/12/29 07:24:34;;;;;;;10.10;6.33;;;8.70;99.90;;;;;;4996296;28;20211;-84
2021/12/29 07:27:01;;;;;;;10.55;6.93;;;8.70;99.90;;;;;;4996481;28;20208;-82
2021/12/29 07:29:27;;;;;;;9.73;6.00;;;8.70;99.90;;;;;;4995814;28;20171;-85
2021/12/29 07:31:53;;;;;;;10.85;6.38;;;8.80;99.90;;;;;;4996179;28;20566;-86
2021/12/29 07:34:22;;;;;;;11.10;6.17;;;8.60;99.90;;;;;;4995212;28;20175;-82
2021/12/29 07:36:49;;;;;;;11.35;6.35;;;8.80;99.90;;;;;;4996261;28;20587;-85
2021/12/29 07:39:14;;;;;;;8.48;6.55;;;8.70;99.90;;;;;;4995815;28;20176;-83
2021/12/29 07:41:40;;;;;;;9.60;5.20;;;8.70;99.90;;;;;;4995521;28;20206;-83
2021/12/29 07:44:07;;;;;;;6.85;5.65;;;8.50;99.90;;;;;;4995938;28;20660;-83
2021/12/29 07:46:34;;;;;;;8.48;5.43;;;8.80;99.90;;;;;;4996044;28;20195;-85
2021/12/29 07:49:03;;;;;;;8.65;4.82;;;8.80;99.90;;;;;;4994732;28;20172;-83
2021/12/29 07:51:29;;;;;;;6.65;5.45;;;8.80;99.90;;;;;;4995472;28;20215;-82
2021/12/29 07:53:55;;;;;;;9.60;6.00;;;8.80;99.90;;;;;;4995612;28;20660;-84
2021/12/29 07:56:20;;;;;;;15.83;6.50;;;8.80;99.90;;;;;;4995700;28;20430;-83
2021/12/29 07:58:46;;;;;;;9.00;5.80;;;8.80;99.90;;;;;;4994593;28;20179;-85
2021/12/29 08:01:12;;;;;;;6.43;5.60;;;8.80;99.90;;;;;;4995179;28;20203;-82
2021/12/29 08:03:40;;;;;;;9.47;5.30;;;8.90;99.90;;;;;;4995042;28;20203;-85
2021/12/29 08:06:05;;;;;;;8.60;5.85;;;8.80;99.90;;;;;;4995576;28;20233;-83
2021/12/29 08:08:31;;;;;;;9.73;5.13;;;8.80;99.90;;;;;;4994245;28;20187;-84
2021/12/29 08:10:57;;;;;;;6.73;4.73;;;8.70;99.90;;;;;;4995078;28;20635;-84
2021/12/29 08:13:22;;;;;;;7.50;5.00;;;8.60;99.90;;;;;;4995594;28;20349;-84
2021/12/29 08:15:48;;;;;;;11.93;4.97;;;8.70;99.90;;;;;;4995510;28;20656;-85
2021/12/29 08:18:14;;;;;;;9.93;4.83;;;8.80;99.90;;;;;;4995503;28;20183;-85
2021/12/29 08:20:40;;;;;;;6.93;5.67;;;8.80;99.90;;;;;;4993728;28;20215;-83
2021/12/29 08:23:07;;;;;;;11.07;4.83;;;8.80;99.90;;;;;;4996830;28;20187;-83
2021/12/29 08:25:32;;;;;;;7.72;4.50;;;8.90;99.90;;;;;;4995113;28;20418;-85
2021/12/29 08:27:58;;;;;;;8.10;4.77;;;9.00;99.90;;;;;;4995580;28;20527;-85
2021/12/29 08:30:25;;;;;;;8.70;4.00;;;8.90;99.90;;;;;;4993519;28;20494;-82
2021/12/29 08:32:51;;;;;;;12.68;5.30;;;9.00;99.90;;;;;;4995235;28;20950;-86
2021/12/29 08:35:16;;;;;;;7.90;3.80;;;9.00;99.90;;;;;;4994969;28;20218;-83
2021/12/29 08:37:43;;;;;;;9.73;4.77;;;8.90;99.90;;;;;;4995028;28;20415;-83
2021/12/29 08:40:10;;;;;;;8.57;4.38;;;9.00;99.90;;;;;;4994772;28;20187;-83
2021/12/29 08:42:37;;;;;;;5.22;4.25;;;9.00;99.90;;;;;;4994974;28;20196;-82
2021/12/29 08:45:05;;;;;;;7.22;4.10;;;8.90;99.90;;;;;;4993759;28;20185;-83
2021/12/29 08:47:30;;;;;;;8.02;4.32;;;9.00;99.90;;;;;;4994929;28;20195;-85
2021/12/29 08:50:09;;;;;;;7.73;4.03;;;8.90;99.90;;;;;;4993205;28;20660;-86
2021/12/29 08:52:35;;;;;;;5.97;3.20;;;8.90;99.90;;;;;;4993389;28;20218;-85
2021/12/29 08:55:03;;;;;;;6.30;3.58;;;8.90;99.90;;;;;;4993893;28;20176;-84
2021/12/29 08:57:29;;;;;;;7.25;4.32;;;9.00;99.90;;;;;;4994758;28;20222;-85
2021/12/29 08:59:55;;;;;;;8.83;3.40;;;9.00;99.90;;;;;;4993089;28;20725;-84
2021/12/29 09:02:20;;;;;;;5.07;4.00;;;9.00;99.90;;;;;;4995059;28;20219;-86
2021/12/29 09:04:46;;;;;;;4.90;3.70;;;9.00;99.90;;;;;;4994677;28;20639;-84
2021/12/29 09:07:11;;;;;;;13.10;4.10;;;9.00;99.90;;;;;;4978260;28;20188;-86
2021/12/29 09:09:37;;;;;;;8.00;4.10;;;9.10;99.90;;;;;;4994043;28;20214;-84
2021/12/29 09:12:03;;;;;;;8.30;4.10;;;9.20;99.90;;;;;;4993209;28;20203;-85
2021/12/29 09:14:29;;;;;;;4.65;3.80;;;9.00;99.90;;;;;;4995678;28;20180;-86
2021/12/29 09:16:54;;;;;;;5.40;4.20;;;9.10;99.90;;;;;;4993965;28;20230;-86
2021/12/29 09:19:22;;;;;;;6.83;4.60;;;9.10;99.90;;;;;;4994109;28;20226;-85
2021/12/29 09:21:52;;;;;;;8.07;4.18;;;9.10;99.90;;;;;;4978724;28;20215;-85
2021/12/29 09:24:18;;;;;;;5.60;4.25;;;9.10;99.90;;;;;;4995953;28;20544;-85
2021/12/29 09:26:43;;;;;;;5.17;3.10;;;9.10;99.90;;;;;;4995564;28;20353;-86
2021/12/29 09:29:09;;;;;;;4.53;4.13;;;9.10;99.90;;;;;;4996517;28;20419;-86
2021/12/29 09:31:35;;;;;;;4.90;4.40;;;9.10;99.90;;;;;;4995268;28;20297;-86
2021/12/29 09:34:01;;;;;;;7.50;4.50;;;9.10;99.90;;;;;;4995928;28;20184;-86
2021/12/29 09:36:26;;;;;;;6.90;4.57;;;9.10;99.90;;;;;;4995901;28;20479;-84
2021/12/29 09:38:52;;;;;;;9.00;4.83;;;9.10;99.90;;;;;;4998979;28;20419;-85
2021/12/29 09:41:19;;;;;;;4.73;3.90;;;9.10;99.90;;;;;;4996690;28;20203;-85
2021/12/29 09:43:46;;;;;;;8.88;4.57;;;9.00;99.90;;;;;;4998011;28;20183;-84
2021/12/29 09:46:12;;;;;;;7.63;4.97;;;9.10;99.90;;;;;;4997854;28;20270;-86
2021/12/29 09:48:38;;;;;;;7.63;4.85;;;9.10;99.90;;;;;;4996332;28;20226;-84
2021/12/29 09:51:06;;;;;;;6.63;5.20;;;9.10;99.90;;;;;;4998738;28;20716;-84
2021/12/29 09:53:32;;;;;;;8.98;5.93;;;9.20;99.90;;;;;;4996668;28;20444;-86
2021/12/29 09:55:58;;;;;;;6.53;4.90;;;9.30;99.90;;;;;;4996196;28;20175;-83
2021/12/29 09:58:24;;;;;;;6.07;5.30;;;9.20;99.90;;;;;;5000250;28;20421;-84
2021/12/29 10:01:04;;;;;;;8.55;5.47;;;9.20;99.90;;;;;;4999904;28;20246;-83
2021/12/29 10:03:30;;;;;;;8.82;6.13;;;9.30;99.90;;;;;;4994619;28;20203;-85
2021/12/29 10:05:59;;;;;;;10.07;6.40;;;9.30;99.90;;;;;;4994319;28;20187;-85
2021/12/29 10:08:34;;;;;;;11.07;6.95;;;9.40;99.90;;;;;;4994089;28;20175;-84
2021/12/29 10:11:04;;;;;;;10.07;7.68;;;9.40;99.90;;;;;;4993894;28;20215;-85
2021/12/29 10:13:32;;;;;;;7.93;6.45;;;9.40;99.90;;;;;;4994830;28;20160;-85
2021/12/29 10:16:08;;;;;;;12.57;7.47;;;9.40;99.90;;;;;;4994238;28;20189;-85
2021/12/29 10:18:37;;;;;;;8.45;6.80;;;9.30;99.90;;;;;;4994356;28;20273;-86
2021/12/29 10:21:15;;;;;;;8.70;6.60;;;9.50;99.90;;;;;;4994350;28;20569;-86
2021/12/29 10:23:43;;;;;;;7.95;5.55;;;9.40;99.90;;;;;;4995055;28;20535;-84
2021/12/29 10:26:13;;;;;;;7.50;5.93;;;9.40;99.90;;;;;;4994969;28;20179;-85
2021/12/29 10:28:47;;;;;;;8.57;6.10;;;9.60;99.90;;;;;;4998117;28;20187;-87
2021/12/29 10:31:19;;;;;;;6.53;5.50;;;9.80;99.90;;;;;;4997378;28;20221;-84
2021/12/29 10:33:48;;;;;;;6.68;4.30;;;10.20;99.90;;;;;;4998447;28;20164;-85
2021/12/29 10:36:18;;;;;;;5.68;3.83;;;10.50;99.90;;;;;;4997726;28;20259;-87
2021/12/29 10:38:50;;;;;;;13.02;4.30;;;10.60;99.90;;;;;;4997938;28;20658;-86
2021/12/29 10:41:15;;;;;;;6.93;3.40;;;10.90;99.90;;;;;;4997502;28;20196;-85
2021/12/29 10:43:51;;;;;;;9.60;3.83;;;11.00;99.90;;;;;;4981026;28;20667;-85
2021/12/29 10:46:18;;;;;;;4.20;2.53;;;11.40;99.90;;;;;;4998324;28;20199;-85
2021/12/29 10:48:50;;;;;;;6.28;2.85;;;11.40;99.90;;;;;;4996781;28;20521;-86
2021/12/29 10:51:18;;;;;;;7.28;3.38;;;10.90;99.90;;;;;;4997055;28;20219;-85
2021/12/29 10:53:44;;;;;;;6.28;2.70;;;11.10;99.90;;;;;;4997508;28;20180;-85
2021/12/29 10:56:20;;;;;;;3.90;1.97;;;10.90;99.90;;;;;;4997234;28;20550;-84
2021/12/29 10:58:46;;;;;;;3.75;2.10;;;10.90;99.90;;;;;;4997050;28;20421;-86
2021/12/29 11:01:14;;;;;;;3.17;2.10;;;11.00;99.90;;;;;;4996830;28;20320;-85
2021/12/29 11:03:46;;;;;;;4.43;2.85;;;10.80;99.90;;;;;;4997165;28;20171;-85
2021/12/29 11:06:14;;;;;;;4.05;2.40;;;11.00;99.90;;;;;;4997006;28;20188;-85
2021/12/29 11:08:50;;;;;;;5.82;2.65;;;11.00;99.90;;;;;;4996748;28;20247;-85
2021/12/29 11:11:17;;;;;;;5.40;2.20;;;10.90;99.90;;;;;;4996526;28;20269;-85
2021/12/29 11:13:43;;;;;;;2.85;2.00;;;11.00;99.90;;;;;;4997051;28;20580;-85
2021/12/29 11:16:09;;;;;;;3.40;2.30;;;11.30;99.90;;;;;;4996548;28;20237;-82
2021/12/29 11:18:42;;;;;;;3.90;1.50;;;11.40;99.90;;;;;;4995268;28;20176;-79
2021/12/29 11:21:09;;;;;;;2.88;1.50;;;11.30;99.90;;;;;;4996001;28;20477;-81
2021/12/29 11:23:41;;;;;;;3.08;1.65;;;11.10;99.90;;;;;;4996460;28;20192;-80
2021/12/29 11:26:06;;;;;;;3.08;1.42;;;11.00;99.90;;;;;;4996395;28;20182;-79
2021/12/29 11:28:32;;;;;;;4.73;2.10;;;11.20;99.90;;;;;;4995002;28;20210;-83
2021/12/29 11:31:02;;;;;;;7.23;1.93;;;11.20;99.90;;;;;;4994627;28;20247;-81
2021/12/29 11:33:32;;;;;;;6.68;2.83;;;11.20;99.90;;;;;;4996493;28;20637;-78
2021/12/29 11:35:59;;;;;;;3.08;1.63;;;11.00;99.90;;;;;;4996507;28;20179;-79
2021/12/29 11:38:26;;;;;;;3.53;1.60;;;11.10;99.90;;;;;;4993760;28;20182;-81
2021/12/29 11:40:58;;;;;;;2.95;1.83;;;11.20;99.90;;;;;;4979768;28;20214;-83
2021/12/29 11:43:27;;;;;;;3.53;1.85;;;11.20;99.90;;;;;;4999985;28;20189;-83
2021/12/29 11:45:56;;;;;;;2.85;1.67;;;11.20;99.90;;;;;;5000431;28;20184;-83
2021/12/29 11:48:23;;;;;;;2.85;1.77;;;11.10;99.90;;;;;;5001633;28;20180;-83
2021/12/29 11:50:56;;;;;;;2.03;1.58;;;11.10;99.90;;;;;;5001081;28;20763;-84
2021/12/29 11:53:43;;;;;;;5.88;1.30;;;11.10;99.90;;;;;;5004159;28;20251;-83
2021/12/29 11:56:14;;;;;;;6.60;2.10;;;11.10;99.90;;;;;;5002950;28;20164;-84
2021/12/29 11:58:42;;;;;;;2.10;1.50;;;11.00;99.90;;;;;;5001584;28;20179;-83
2021/12/29 12:01:11;;;;;;;4.07;1.98;;;11.00;99.90;;;;;;5002789;28;20195;-84
2021/12/29 12:03:53;;;;;;;3.58;1.52;;;11.00;99.90;;;;;;5003513;28;20177;-85
2021/12/29 12:06:31;;;;;;;2.08;1.50;;;11.00;99.90;;;;;;5003345;28;20179;-84
2021/12/29 12:09:16;;;;;;;2.65;1.30;;;11.00;99.90;;;;;;5000919;28;20167;-83
2021/12/29 12:12:00;;;;;;;2.47;1.98;;;11.00;99.90;;;;;;4999439;28;20605;-83
2021/12/29 12:14:30;;;;;;;3.45;1.55;;;11.00;99.90;;;;;;5003025;28;20199;-85
2021/12/29 12:17:11;;;;;;;5.18;1.90;;;10.80;99.90;;;;;;5000864;28;20172;-83
2021/12/29 12:19:38;;;;;;;5.18;1.90;;;10.80;99.90;;;;;;5001984;28;20179;-83
2021/12/29 12:22:13;;;;;;;2.88;1.70;;;10.80;99.90;;;;;;5000884;28;20278;-83
2021/12/29 12:24:42;;;;;;;2.10;1.75;;;10.70;99.90;;;;;;5001147;28;20175;-83
2021/12/29 12:27:26;;;;;;;3.78;1.77;;;10.70;99.90;;;;;;5001267;28;20176;-84
2021/12/29 12:30:10;;;;;;;2.88;1.55;;;10.70;99.90;;;;;;4999476;28;20199;-81
2021/12/29 12:32:45;;;;;;;2.95;1.67;;;10.60;99.90;;;;;;4999122;28;20657;-83
2021/12/29 12:35:12;;;;;;;2.45;1.73;;;10.60;99.90;;;;;;5000942;28;20206;-83
2021/12/29 12:37:45;;;;;;;1.58;1.30;;;10.60;99.90;;;;;;5000501;28;20180;-83
2021/12/29 12:40:11;;;;;;;3.05;1.50;;;10.60;99.90;;;;;;5001237;28;20180;-83
2021/12/29 12:42:38;;;;;;;3.77;1.87;;;10.50;99.90;;;;;;5000952;28;20202;-82
2021/12/29 12:45:21;;;;;;;4.68;1.75;;;10.50;99.90;;;;;;5001290;28;20187;-83
2021/12/29 12:47:48;;;;;;;7.32;1.90;;;10.60;99.90;;;;;;5005551;28;20179;-83
2021/12/29 12:50:27;;;;;;;3.72;1.73;;;10.60;99.90;;;;;;5020587;28;20203;-82
2021/12/29 12:52:55;;;;;;;4.15;2.13;;;10.60;99.90;;;;;;5021860;28;20163;-83
2021/12/29 12:55:22;;;;;;;9.25;2.00;;;10.60;99.90;;;;;;5021062;28;20173;-82
2021/12/29 12:57:50;;;;;;;7.95;2.20;;;10.60;99.90;;;;;;5014908;28;20182;-82